createdAt,value
2022-10-17T00:00:01.497Z,33.10
2022-10-17T00:02:28.864Z,31.73
2022-10-17T00:04:56.091Z,33.72
2022-10-17T00:07:23.426Z,32.55
2022-10-17T00:09:50.706Z,31.27
2022-10-17T00:12:18.115Z,33.75
2022-10-17T00:14:45.464Z,33.15
2022-10-17T00:17:12.958Z,31.52
2022-10-17T00:19:40.290Z,31.15
2022-10-17T00:22:07.630Z,32.63
2022-10-17T00:24:35.013Z,31.88
2022-10-17T00:27:02.406Z,32.67
2022-10-17T00:29:29.763Z,32.20
2022-10-17T00:31:57.854Z,34.42
2022-10-17T00:34:25.458Z,32.60
2022-10-17T00:36:52.756Z,32.25
2022-10-17T00:39:20.804Z,33.17
2022-10-17T00:41:48.211Z,33.25
2022-10-17T00:44:30.573Z,32.95
2022-10-17T00:47:11.864Z,32.92
2022-10-17T00:49:40.372Z,31.90
2022-10-17T00:52:17.822Z,33.65
2022-10-17T00:54:51.856Z,33.65
2022-10-17T00:57:19.334Z,30.98
2022-10-17T00:59:51.622Z,32.53
2022-10-17T01:02:21.837Z,32.35
2022-10-17T01:04:53.236Z,33.90
2022-10-17T01:07:20.736Z,32.42
2022-10-17T01:09:48.818Z,33.30
2022-10-17T01:12:44.499Z,35.38
2022-10-17T01:15:17.433Z,32.72
2022-10-17T01:18:08.333Z,33.50
2022-10-17T01:20:35.701Z,34.22
2022-10-17T01:23:25.090Z,34.15
2022-10-17T01:26:26.537Z,32.95
2022-10-17T01:29:25.537Z,32.97
2022-10-17T01:32:00.358Z,34.15
2022-10-17T01:34:43.138Z,33.45
2022-10-17T01:37:32.395Z,31.75
2022-10-17T01:40:41.340Z,33.08
2022-10-17T01:43:21.502Z,31.48
2022-10-17T01:46:17.828Z,31.50
2022-10-17T01:48:46.473Z,33.22
2022-10-17T01:51:22.765Z,33.45
2022-10-17T01:53:55.356Z,33.63
2022-10-17T01:56:26.458Z,33.53
2022-10-17T01:59:00.252Z,33.20
2022-10-17T02:01:31.074Z,33.70
2022-10-17T02:04:02.563Z,33.53
2022-10-17T02:06:33.963Z,32.53
2022-10-17T02:09:02.263Z,32.60
2022-10-17T02:11:29.652Z,33.20
2022-10-17T02:14:15.557Z,34.63
2022-10-17T02:16:48.812Z,33.95
2022-10-17T02:19:53.301Z,34.60
2022-10-17T02:22:47.778Z,32.85
2022-10-17T02:25:37.170Z,33.00
2022-10-17T02:28:42.764Z,34.03
2022-10-17T02:31:22.262Z,34.00
2022-10-17T02:33:55.837Z,30.98
2022-10-17T02:36:29.060Z,35.42
2022-10-17T02:38:58.916Z,34.13
2022-10-17T02:41:27.016Z,34.65
2022-10-17T02:43:57.643Z,32.72
2022-10-17T02:46:29.312Z,32.05
2022-10-17T02:49:15.736Z,35.08
2022-10-17T02:51:49.399Z,32.88
2022-10-17T02:54:28.717Z,33.55
2022-10-17T02:57:01.097Z,33.85
2022-10-17T02:59:30.669Z,33.38
2022-10-17T03:01:58.131Z,33.42
2022-10-17T03:04:25.530Z,32.95
2022-10-17T03:06:52.948Z,34.28
2022-10-17T03:09:20.352Z,33.03
2022-10-17T03:11:47.630Z,31.98
2022-10-17T03:14:15.275Z,34.97
2022-10-17T03:16:43.234Z,33.58
2022-10-17T03:19:10.630Z,33.20
2022-10-17T03:21:38.277Z,34.30
2022-10-17T03:24:07.502Z,33.92
2022-10-17T03:26:34.973Z,33.47
2022-10-17T03:29:03.554Z,33.22
2022-10-17T03:31:31.544Z,35.40
2022-10-17T03:34:02.346Z,32.38
2022-10-17T03:36:30.216Z,34.75
2022-10-17T03:38:57.722Z,35.17
2022-10-17T03:41:25.054Z,34.13
2022-10-17T03:43:54.486Z,33.33
2022-10-17T03:46:22.208Z,31.83
2022-10-17T03:48:49.587Z,32.53
2022-10-17T03:51:17.322Z,33.22
2022-10-17T03:53:50.103Z,33.70
2022-10-17T03:56:19.310Z,32.83
2022-10-17T03:58:55.277Z,34.63
2022-10-17T04:01:23.336Z,33.25
2022-10-17T04:03:52.999Z,33.35
2022-10-17T04:06:21.365Z,32.60
2022-10-17T04:08:50.473Z,32.97
2022-10-17T04:11:23.321Z,32.47
2022-10-17T04:13:55.750Z,31.67
2022-10-17T04:16:24.795Z,31.67
2022-10-17T04:19:00.112Z,32.15
2022-10-17T04:21:31.148Z,32.90
2022-10-17T04:24:03.590Z,32.53
2022-10-17T04:26:56.764Z,33.85
2022-10-17T04:29:27.638Z,32.65
2022-10-17T04:32:04.168Z,30.48
2022-10-17T04:34:40.923Z,35.00
2022-10-17T04:37:08.243Z,32.70
2022-10-17T04:39:37.167Z,31.70
2022-10-17T04:42:04.528Z,32.65
2022-10-17T04:44:33.598Z,30.98
2022-10-17T04:47:01.708Z,31.42
2022-10-17T04:49:29.172Z,32.92
2022-10-17T04:52:02.581Z,31.98
2022-10-17T04:54:39.283Z,32.53
2022-10-17T04:57:09.910Z,34.33
2022-10-17T04:59:37.482Z,31.50
2022-10-17T05:02:22.715Z,33.13
2022-10-17T05:04:51.144Z,34.03
2022-10-17T05:07:18.528Z,32.90
2022-10-17T05:09:45.710Z,32.30
2022-10-17T05:12:13.207Z,32.97
2022-10-17T05:14:44.168Z,32.00
2022-10-17T05:17:11.471Z,32.33
2022-10-17T05:19:39.502Z,32.80
2022-10-17T05:22:08.580Z,33.78
2022-10-17T05:24:35.968Z,34.05
2022-10-17T05:27:04.122Z,32.40
2022-10-17T05:29:31.758Z,32.50
2022-10-17T05:32:19.401Z,32.90
2022-10-17T05:34:46.842Z,32.47
2022-10-17T05:37:14.650Z,31.42
2022-10-17T05:39:50.608Z,32.20
2022-10-17T05:42:19.544Z,33.15
2022-10-17T05:44:48.063Z,30.92
2022-10-17T05:47:17.936Z,33.15
2022-10-17T05:49:50.006Z,32.63
2022-10-17T05:52:23.188Z,32.30
2022-10-17T05:55:07.346Z,30.25
2022-10-17T05:57:34.703Z,30.88
2022-10-17T06:00:04.974Z,32.35
2022-10-17T06:02:42.206Z,32.60
2022-10-17T06:05:11.302Z,30.60
2022-10-17T06:07:38.872Z,31.52
2022-10-17T06:10:07.585Z,33.33
2022-10-17T06:12:34.889Z,32.45
2022-10-17T06:15:02.451Z,32.70
2022-10-17T06:17:30.406Z,32.45
2022-10-17T06:19:58.635Z,33.22
2022-10-17T06:22:26.049Z,33.00
2022-10-17T06:24:53.785Z,31.60
2022-10-17T06:27:21.615Z,32.25
2022-10-17T06:29:51.175Z,33.47
2022-10-17T06:32:18.578Z,32.45
2022-10-17T06:34:47.561Z,31.40
2022-10-17T06:37:15.804Z,30.73
2022-10-17T06:39:44.137Z,31.92
2022-10-17T06:42:13.938Z,28.83
2022-10-17T06:45:10.770Z,31.73
2022-10-17T06:47:59.031Z,33.20
2022-10-17T06:50:37.566Z,34.13
2022-10-17T06:53:11.639Z,36.65
2022-10-17T06:56:04.265Z,35.08
2022-10-17T06:58:51.342Z,32.80
2022-10-17T07:01:28.634Z,34.75
2022-10-17T07:03:58.497Z,33.10
2022-10-17T07:06:26.280Z,31.20
2022-10-17T07:08:56.312Z,27.13
2022-10-17T07:11:23.981Z,30.23
2022-10-17T07:13:53.099Z,32.00
2022-10-17T07:16:22.392Z,31.63
2022-10-17T07:18:57.501Z,28.88
2022-10-17T07:21:25.250Z,28.75
2022-10-17T07:23:52.704Z,31.27
2022-10-17T07:26:20.873Z,31.05
2022-10-17T07:28:53.086Z,31.50
2022-10-17T07:31:30.706Z,29.13
2022-10-17T07:34:00.383Z,30.65
2022-10-17T07:36:28.898Z,30.77
2022-10-17T07:38:57.193Z,30.60
2022-10-17T07:41:26.177Z,29.25
2022-10-17T07:43:54.023Z,32.38
2022-10-17T07:46:26.355Z,30.80
2022-10-17T07:48:53.816Z,28.58
2022-10-17T07:51:22.309Z,28.42
2022-10-17T07:53:49.627Z,32.30
2022-10-17T07:56:17.433Z,30.80
2022-10-17T07:58:44.859Z,29.33
2022-10-17T08:01:15.596Z,29.58
2022-10-17T08:03:48.591Z,29.63
2022-10-17T08:06:16.090Z,29.13
2022-10-17T08:08:44.089Z,30.92
2022-10-17T08:11:14.191Z,29.10
2022-10-17T08:13:42.213Z,29.92
2022-10-17T08:16:12.163Z,33.30
2022-10-17T08:18:42.709Z,31.23
2022-10-17T08:21:11.288Z,32.80
2022-10-17T08:23:38.945Z,29.48
2022-10-17T08:26:10.656Z,31.83
2022-10-17T08:28:39.857Z,31.52
2022-10-17T08:31:11.495Z,29.65
2022-10-17T08:33:39.049Z,34.35
2022-10-17T08:36:07.674Z,31.38
2022-10-17T08:38:36.923Z,33.33
2022-10-17T08:41:13.199Z,35.03
2022-10-17T08:44:02.920Z,32.72
2022-10-17T08:46:37.323Z,32.25
2022-10-17T08:49:12.161Z,34.30
2022-10-17T08:52:03.868Z,33.00
2022-10-17T08:54:51.613Z,33.17
2022-10-17T08:57:18.998Z,31.73
2022-10-17T08:59:52.028Z,30.48
2022-10-17T09:02:38.340Z,31.35
2022-10-17T09:05:42.983Z,33.58
2022-10-17T09:08:14.553Z,31.08
2022-10-17T09:10:50.867Z,29.08
2022-10-17T09:13:27.105Z,31.95
2022-10-17T09:16:07.734Z,35.60
2022-10-17T09:18:58.874Z,34.78
2022-10-17T09:21:44.735Z,31.07
2022-10-17T09:24:32.688Z,30.45
2022-10-17T09:27:00.227Z,33.28
2022-10-17T09:29:31.016Z,35.17
2022-10-17T09:32:04.680Z,30.10
2022-10-17T09:34:33.118Z,30.60
2022-10-17T09:37:01.966Z,31.25
2022-10-17T09:39:33.219Z,28.77
2022-10-17T09:42:03.135Z,29.45
2022-10-17T09:44:38.590Z,32.13
2022-10-17T09:47:11.844Z,28.08
2022-10-17T09:49:41.812Z,30.55
2022-10-17T09:52:30.627Z,28.63
2022-10-17T09:55:22.526Z,31.42
2022-10-17T09:57:57.582Z,32.38
2022-10-17T10:00:46.621Z,32.72
2022-10-17T10:03:18.491Z,33.85
2022-10-17T10:06:05.349Z,32.95
2022-10-17T10:08:36.735Z,32.03
2022-10-17T10:11:09.597Z,31.15
2022-10-17T10:13:39.227Z,29.65
2022-10-17T10:16:20.058Z,30.27
2022-10-17T10:18:50.136Z,34.25
2022-10-17T10:21:23.674Z,35.05
2022-10-17T10:24:14.077Z,30.92
2022-10-17T10:26:45.209Z,29.98
2022-10-17T10:29:39.911Z,29.80
2022-10-17T10:32:23.182Z,27.48
2022-10-17T10:35:04.581Z,30.17
2022-10-17T10:37:53.360Z,27.38
2022-10-17T10:40:20.644Z,29.27
2022-10-17T10:42:51.270Z,29.23
2022-10-17T10:45:43.315Z,29.08
2022-10-17T10:48:21.880Z,30.48
2022-10-17T10:51:14.005Z,29.50
2022-10-17T10:53:44.127Z,25.63
2022-10-17T10:56:14.231Z,27.55
2022-10-17T10:58:50.580Z,25.70
2022-10-17T11:01:38.135Z,29.25
2022-10-17T11:04:14.952Z,27.83
2022-10-17T11:06:45.339Z,26.05
2022-10-17T11:09:39.754Z,25.75
2022-10-17T11:12:25.821Z,29.75
2022-10-17T11:15:20.941Z,27.00
2022-10-17T11:17:52.806Z,23.63
2022-10-17T11:20:35.136Z,25.45
2022-10-17T11:23:20.702Z,23.00
2022-10-17T11:25:51.872Z,23.35
2022-10-17T11:28:22.726Z,24.17
2022-10-17T11:31:04.461Z,23.23
2022-10-17T11:34:14.955Z,23.00
2022-10-17T11:36:44.414Z,22.83
2022-10-17T11:39:20.614Z,21.52
2022-10-17T11:41:57.514Z,20.50
2022-10-17T11:44:44.926Z,24.00
2022-10-17T11:47:37.976Z,23.40
2022-10-17T11:53:04.996Z,22.17
2022-10-17T11:55:34.447Z,22.65
2022-10-17T11:58:50.240Z,21.08
2022-10-17T12:01:38.041Z,21.08
2022-10-17T12:04:38.447Z,21.10
2022-10-17T12:07:30.440Z,22.83
2022-10-17T12:10:01.683Z,20.38
2022-10-17T12:12:32.521Z,22.20
2022-10-17T12:15:26.295Z,23.05
2022-10-17T12:18:02.889Z,22.42
2022-10-17T12:20:37.664Z,21.50
2022-10-17T12:23:05.053Z,20.88
2022-10-17T12:25:35.448Z,23.92
2022-10-17T12:28:02.705Z,24.92
2022-10-17T12:30:30.476Z,26.40
2022-10-17T12:33:23.739Z,23.67
2022-10-17T12:35:52.207Z,25.90
2022-10-17T12:38:21.085Z,24.10
2022-10-17T12:40:50.884Z,24.45
2022-10-17T12:43:18.173Z,23.50
2022-10-17T12:45:56.433Z,25.52
2022-10-17T12:48:39.481Z,24.80
2022-10-17T12:51:34.346Z,26.27
2022-10-17T12:56:41.318Z,26.52
2022-10-17T12:59:22.433Z,25.60
2022-10-17T13:01:53.580Z,25.52
2022-10-17T13:04:21.992Z,24.63
2022-10-17T13:06:54.338Z,24.25
2022-10-17T13:09:35.400Z,23.15
2022-10-17T13:12:06.525Z,23.27
2022-10-17T13:14:34.837Z,24.10
2022-10-17T13:17:05.199Z,24.58
2022-10-17T13:19:42.170Z,24.35
2022-10-17T13:22:33.341Z,23.77
2022-10-17T13:25:15.939Z,24.03
2022-10-17T13:27:43.595Z,26.90
2022-10-17T13:30:33.398Z,25.40
2022-10-17T13:33:02.187Z,25.55
2022-10-17T13:38:34.166Z,24.60
2022-10-17T13:41:23.264Z,28.88
2022-10-17T13:43:51.645Z,26.27
2022-10-17T13:46:37.202Z,23.70
2022-10-17T13:49:35.043Z,25.50
2022-10-17T13:52:04.982Z,30.60
2022-10-17T13:54:42.843Z,25.13
2022-10-17T13:57:26.257Z,28.98
2022-10-17T14:00:00.813Z,30.13
2022-10-17T14:02:30.456Z,24.98
2022-10-17T14:05:19.897Z,24.20
2022-10-17T14:08:10.819Z,22.65
2022-10-17T14:10:41.299Z,23.35
2022-10-17T14:13:36.167Z,29.30
2022-10-17T14:16:04.590Z,24.90
2022-10-17T14:18:36.680Z,25.35
2022-10-17T14:24:13.690Z,23.23
2022-10-17T14:27:01.319Z,26.70
2022-10-17T14:29:31.564Z,27.45
2022-10-17T14:32:06.456Z,22.88
2022-10-17T14:34:37.009Z,23.20
2022-10-17T14:37:31.829Z,22.10
2022-10-17T14:40:01.095Z,23.38
2022-10-17T14:42:28.770Z,22.25
2022-10-17T14:45:05.245Z,24.17
2022-10-17T14:47:48.636Z,24.45
2022-10-17T14:50:16.318Z,23.63
2022-10-17T14:53:03.348Z,22.95
2022-10-17T14:55:32.436Z,23.65
2022-10-17T14:57:59.795Z,24.92
2022-10-17T15:00:28.112Z,24.23
2022-10-17T15:02:56.417Z,24.88
2022-10-17T15:05:24.958Z,23.05
2022-10-17T15:07:52.289Z,23.95
2022-10-17T15:10:33.803Z,25.35
2022-10-17T15:15:52.012Z,23.60
2022-10-17T15:18:19.792Z,24.67
2022-10-17T15:20:49.573Z,23.58
2022-10-17T15:23:22.749Z,23.30
2022-10-17T15:25:50.072Z,22.65
2022-10-17T15:28:17.295Z,23.20
2022-10-17T15:30:44.628Z,22.33
2022-10-17T15:33:11.958Z,22.55
2022-10-17T15:35:39.386Z,22.05
2022-10-17T15:38:07.524Z,21.95
2022-10-17T15:40:34.813Z,22.20
2022-10-17T15:43:02.250Z,21.80
2022-10-17T15:45:29.676Z,22.67
2022-10-17T15:48:06.709Z,20.75
2022-10-17T15:50:34.047Z,21.95
2022-10-17T15:53:01.438Z,23.63
2022-10-17T15:55:28.793Z,22.08
2022-10-17T15:57:56.146Z,21.10
2022-10-17T16:00:24.456Z,20.42
2022-10-17T16:02:51.825Z,22.00
2022-10-17T16:05:26.104Z,22.27
2022-10-17T16:07:54.082Z,21.38
2022-10-17T16:10:22.347Z,20.02
2022-10-17T16:12:50.450Z,21.27
2022-10-17T16:15:25.945Z,22.15
2022-10-17T16:17:54.699Z,22.42
2022-10-17T16:20:23.582Z,23.02
2022-10-17T16:22:53.059Z,22.10
2022-10-17T16:25:23.759Z,25.00
2022-10-17T16:27:53.637Z,23.00
2022-10-17T16:32:56.045Z,23.35
2022-10-17T16:35:33.140Z,23.20
2022-10-17T16:38:05.430Z,23.23
2022-10-17T16:40:32.769Z,23.50
2022-10-17T16:43:00.216Z,23.08
2022-10-17T16:45:27.729Z,24.08
2022-10-17T16:47:55.541Z,24.58
2022-10-17T16:50:23.302Z,24.60
2022-10-17T16:52:50.979Z,25.45
2022-10-17T16:55:19.040Z,24.27
2022-10-17T16:57:49.111Z,24.65
2022-10-17T17:00:17.140Z,24.85
2022-10-17T17:02:47.135Z,25.52
2022-10-17T17:05:14.733Z,25.05
2022-10-17T17:07:42.114Z,23.98
2022-10-17T17:10:09.777Z,23.45
2022-10-17T17:12:37.173Z,23.77
2022-10-17T17:15:05.582Z,25.75
2022-10-17T17:17:49.280Z,26.30
2022-10-17T17:20:18.791Z,25.02
2022-10-17T17:22:46.110Z,24.75
2022-10-17T17:25:13.439Z,24.95
2022-10-17T17:27:41.091Z,23.67
2022-10-17T17:30:08.919Z,24.45
2022-10-17T17:32:36.254Z,25.10
2022-10-17T17:35:03.765Z,24.88
2022-10-17T17:37:31.464Z,24.33
2022-10-17T17:39:59.060Z,26.85
2022-10-17T17:42:26.538Z,26.92
2022-10-17T17:44:53.887Z,27.80
2022-10-17T17:47:21.209Z,29.40
2022-10-17T17:49:48.516Z,31.83
2022-10-17T17:52:15.904Z,31.58
2022-10-17T17:54:44.630Z,30.40
2022-10-17T17:57:12.513Z,30.60
2022-10-17T17:59:41.152Z,30.42
2022-10-17T18:02:09.848Z,28.70
2022-10-17T18:04:37.281Z,29.52
2022-10-17T18:07:04.627Z,29.60
2022-10-17T18:09:32.011Z,29.33
2022-10-17T18:11:59.340Z,30.85
2022-10-17T18:14:26.882Z,30.42
2022-10-17T18:16:54.399Z,29.92
2022-10-17T18:19:23.825Z,29.65
2022-10-17T18:21:51.310Z,31.17
2022-10-17T18:24:18.702Z,31.52
2022-10-17T18:26:46.127Z,30.05
2022-10-17T18:29:13.452Z,31.05
2022-10-17T18:31:40.935Z,30.00
2022-10-17T18:34:08.352Z,30.77
2022-10-17T18:36:37.141Z,28.85
2022-10-17T18:39:05.308Z,27.77
2022-10-17T18:41:33.119Z,28.83
2022-10-17T18:44:00.707Z,28.27
2022-10-17T18:46:30.582Z,28.65
2022-10-17T18:48:58.608Z,28.38
2022-10-17T18:51:27.217Z,27.13
2022-10-17T18:53:56.489Z,30.10
2022-10-17T18:56:24.184Z,30.00
2022-10-17T18:58:52.002Z,31.30
2022-10-17T19:01:24.265Z,32.33
2022-10-17T19:03:53.830Z,32.53
2022-10-17T19:06:23.834Z,31.73
2022-10-17T19:08:51.255Z,31.58
2022-10-17T19:11:21.339Z,33.33
2022-10-17T19:13:49.792Z,32.70
2022-10-17T19:16:20.224Z,34.70
2022-10-17T19:19:06.779Z,35.35
2022-10-17T19:21:34.764Z,36.15
2022-10-17T19:24:05.639Z,35.33
2022-10-17T19:26:35.322Z,33.72
2022-10-17T19:29:03.351Z,35.47
2022-10-17T19:31:31.980Z,33.28
2022-10-17T19:34:00.119Z,32.20
2022-10-17T19:36:33.404Z,34.42
2022-10-17T19:39:13.823Z,33.22
2022-10-17T19:41:43.031Z,33.15
2022-10-17T19:44:10.981Z,33.78
2022-10-17T19:46:39.145Z,35.08
2022-10-17T19:49:07.640Z,33.92
2022-10-17T19:51:35.027Z,33.92
2022-10-17T19:54:02.477Z,33.92
2022-10-17T19:56:33.571Z,34.45
2022-10-17T19:59:01.245Z,34.30
2022-10-17T20:01:37.046Z,34.78
2022-10-17T20:04:04.973Z,32.05
2022-10-17T20:06:33.635Z,34.00
2022-10-17T20:09:01.057Z,34.75
2022-10-17T20:11:29.343Z,33.63
2022-10-17T20:13:57.382Z,34.13
2022-10-17T20:16:28.790Z,33.25
2022-10-17T20:19:01.319Z,33.90
2022-10-17T20:21:32.419Z,36.42
2022-10-17T20:24:00.972Z,35.10
2022-10-17T20:26:44.634Z,35.58
2022-10-17T20:29:16.249Z,36.70
2022-10-17T20:31:45.304Z,38.00
2022-10-17T20:34:14.605Z,40.20
2022-10-17T20:36:42.456Z,39.35
2022-10-17T20:39:12.270Z,39.65
2022-10-17T20:41:40.086Z,39.95
2022-10-17T20:44:08.465Z,38.22
2022-10-17T20:46:37.636Z,37.85
2022-10-17T20:49:07.118Z,37.17
2022-10-17T20:51:35.376Z,38.30
2022-10-17T20:54:03.688Z,37.17
2022-10-17T20:56:32.905Z,37.42
2022-10-17T20:59:03.403Z,36.95
2022-10-17T21:01:32.842Z,36.08
2022-10-17T21:04:21.448Z,37.60
2022-10-17T21:06:48.789Z,36.97
2022-10-17T21:09:16.125Z,36.40
2022-10-17T21:11:43.974Z,36.72
2022-10-17T21:14:12.188Z,36.25
2022-10-17T21:16:41.255Z,35.70
2022-10-17T21:19:10.564Z,38.20
2022-10-17T21:21:41.373Z,36.42
2022-10-17T21:24:14.337Z,38.42
2022-10-17T21:26:43.080Z,38.88
2022-10-17T21:29:12.325Z,37.13
2022-10-17T21:31:42.592Z,37.58
2022-10-17T21:34:13.103Z,37.20
2022-10-17T21:36:41.238Z,34.85
2022-10-17T21:39:09.901Z,34.85
2022-10-17T21:41:37.608Z,34.15
2022-10-17T21:44:08.396Z,33.72
2022-10-17T21:46:35.742Z,33.10
2022-10-17T21:49:03.149Z,34.33
2022-10-17T21:51:30.494Z,33.10
2022-10-17T21:53:58.328Z,34.78
2022-10-17T21:56:31.099Z,32.60
2022-10-17T21:58:59.932Z,32.72
2022-10-17T22:01:29.709Z,32.08
2022-10-17T22:03:58.799Z,31.48
2022-10-17T22:06:43.999Z,30.88
2022-10-17T22:09:23.611Z,31.42
2022-10-17T22:11:53.789Z,32.10
2022-10-17T22:14:22.870Z,31.88
2022-10-17T22:16:50.595Z,33.92
2022-10-17T22:19:22.088Z,32.22
2022-10-17T22:21:49.907Z,30.27
2022-10-17T22:24:18.832Z,33.58
2022-10-17T22:26:46.684Z,30.48
2022-10-17T22:29:14.519Z,32.92
2022-10-17T22:31:42.237Z,29.90
2022-10-17T22:34:12.692Z,31.20
2022-10-17T22:36:40.346Z,29.98
2022-10-17T22:39:07.666Z,31.10
2022-10-17T22:41:35.296Z,31.55
2022-10-17T22:44:03.098Z,30.88
2022-10-17T22:46:30.490Z,31.33
2022-10-17T22:48:57.853Z,30.27
2022-10-17T22:51:25.316Z,31.83
2022-10-17T22:53:52.633Z,30.20
2022-10-17T22:56:21.518Z,30.75
2022-10-17T22:58:49.281Z,30.02
2022-10-17T23:01:22.130Z,29.00
2022-10-17T23:03:50.966Z,29.50
2022-10-17T23:06:19.093Z,28.58
2022-10-17T23:08:46.577Z,29.83
2022-10-17T23:11:14.337Z,27.60
2022-10-17T23:13:41.796Z,26.98
2022-10-17T23:16:09.431Z,27.45
2022-10-17T23:18:38.007Z,27.60
2022-10-17T23:21:06.607Z,27.58
2022-10-17T23:23:34.087Z,29.45
2022-10-17T23:26:06.526Z,29.52
2022-10-17T23:28:35.548Z,27.80
2022-10-17T23:31:13.702Z,27.10
2022-10-17T23:33:41.836Z,27.05
2022-10-17T23:36:11.004Z,25.90
2022-10-17T23:38:39.820Z,25.00
2022-10-17T23:41:07.698Z,26.67
2022-10-17T23:43:35.673Z,26.08
2022-10-17T23:46:04.304Z,25.85
2022-10-17T23:48:31.690Z,27.17
2022-10-17T23:50:59.085Z,27.40
2022-10-17T23:53:26.843Z,26.63
2022-10-17T23:55:54.150Z,26.40
2022-10-17T23:58:21.540Z,29.80
